^^
Your Local Weather - Clay, NY Station Historical Data
Daily Summary for September 2, 2017 Units:  English    Metric   Both
« Previous Day
Next Day »
Daily Weekly Monthly Yearly Custom
  High: Low: Average:
Temperature: 70.6 °F 41.7 °F 56.4 °F
Dew Point: 51.7 °F 39.7 °F 45 °F
Humidity: 93% 35% 69%
Wind Speed: 5.0mph 0.0mph 1.6mph
Wind Gust: 11.0mph - -
Wind- - SE
Pressure: 30.21 in 30.00 in -
Precipitation: 0.01 in    
Historical Graphs
 
 
Tabular Data for September 2, 2017
Time Temperature Dew Point Pressure Wind Wind Speed Wind Gust Humidity Rainfall Rate (Hourly) solar
00:00 44.5 °F 42.0 °F 30.18 in Calm     91% 0.00 in 0 W/m2
00:06 44.3 °F 41.8 °F 30.19 in Calm     91% 0.00 in 0 W/m2
00:12 44.1 °F 41.6 °F 30.19 in Calm     91% 0.00 in 0 W/m2
00:16 44.0 °F 41.5 °F 30.18 in Calm     91% 0.00 in 0 W/m2
00:22 44.0 °F 41.8 °F 30.18 in Calm     92% 0.00 in 0 W/m2
00:28 44.1 °F 41.9 °F 30.18 in Calm     92% 0.00 in 0 W/m2
00:34 44.2 °F 42.0 °F 30.18 in Calm     92% 0.00 in 0 W/m2
00:40 44.0 °F 41.8 °F 30.18 in Calm     92% 0.00 in 0 W/m2
00:46 43.9 °F 41.7 °F 30.19 in Calm     92% 0.00 in 0 W/m2
00:52 43.7 °F 41.5 °F 30.19 in Calm     92% 0.00 in 0 W/m2
00:58 43.6 °F 41.4 °F 30.19 in Calm     92% 0.00 in 0 W/m2
01:04 43.5 °F 41.3 °F 30.19 in Calm     92% 0.00 in 0 W/m2
01:10 43.5 °F 41.3 °F 30.19 in Calm     92% 0.00 in 0 W/m2
01:16 43.6 °F 41.4 °F 30.19 in Calm     92% 0.00 in 0 W/m2
01:22 43.7 °F 41.5 °F 30.19 in Calm     92% 0.00 in 0 W/m2
01:28 43.6 °F 41.4 °F 30.19 in Calm     92% 0.00 in 0 W/m2
01:34 43.6 °F 41.4 °F 30.19 in Calm     92% 0.00 in 0 W/m2
01:40 43.5 °F 41.3 °F 30.19 in Calm     92% 0.00 in 0 W/m2
01:46 43.4 °F 41.2 °F 30.19 in Calm     92% 0.00 in 0 W/m2
01:52 43.3 °F 41.1 °F 30.19 in Calm     92% 0.00 in 0 W/m2
01:58 43.1 °F 40.9 °F 30.19 in Calm     92% 0.00 in 0 W/m2
02:04 43.1 °F 41.2 °F 30.19 in Calm     93% 0.00 in 0 W/m2
02:10 42.9 °F 41.0 °F 30.20 in Calm     93% 0.00 in 0 W/m2
02:16 43.2 °F 41.3 °F 30.20 in Calm     93% 0.00 in 0 W/m2
02:22 43.5 °F 41.6 °F 30.20 in Calm     93% 0.00 in 0 W/m2
02:28 44.2 °F 42.3 °F 30.20 in Calm   1.0 mph 93% 0.00 in 0 W/m2
02:34 44.7 °F 42.8 °F 30.21 in Calm   1.0 mph 93% 0.00 in 0 W/m2
02:40 44.9 °F 43.0 °F 30.21 in Calm   1.0 mph 93% 0.00 in 0 W/m2
02:46 45.0 °F 43.1 °F 30.21 in Calm   2.0 mph 93% 0.00 in 0 W/m2
02:52 45.1 °F 43.2 °F 30.21 in Calm     93% 0.00 in 0 W/m2
02:58 45.2 °F 43.3 °F 30.21 in Calm   1.0 mph 93% 0.00 in 0 W/m2
03:04 45.2 °F 43.3 °F 30.21 in NNW 1.0 mph 1.0 mph 93% 0.00 in 0 W/m2
03:10 45.2 °F 43.3 °F 30.21 in Calm     93% 0.00 in 0 W/m2
03:16 45.3 °F 43.4 °F 30.21 in Calm     93% 0.00 in 0 W/m2
03:22 45.2 °F 43.3 °F 30.21 in Calm     93% 0.00 in 0 W/m2
03:28 45.2 °F 43.3 °F 30.21 in Calm     93% 0.00 in 0 W/m2
03:34 45.2 °F 43.3 °F 30.21 in Calm   1.0 mph 93% 0.00 in 0 W/m2
03:40 45.2 °F 43.3 °F 30.21 in Calm     93% 0.00 in 0 W/m2
03:46 45.1 °F 43.2 °F 30.21 in Calm     93% 0.00 in 0 W/m2
03:52 45.0 °F 43.1 °F 30.21 in Calm     93% 0.00 in 0 W/m2
03:58 45.0 °F 43.1 °F 30.21 in Calm     93% 0.00 in 0 W/m2
04:04 45.0 °F 43.1 °F 30.21 in Calm     93% 0.00 in 0 W/m2
04:10 45.1 °F 43.2 °F 30.20 in Calm     93% 0.00 in 0 W/m2
04:16 45.0 °F 43.1 °F 30.20 in Calm     93% 0.00 in 0 W/m2
04:22 44.9 °F 43.0 °F 30.20 in Calm   1.0 mph 93% 0.00 in 0 W/m2
04:28 44.6 °F 42.4 °F 30.20 in Calm   1.0 mph 92% 0.00 in 0 W/m2
04:34 44.4 °F 42.2 °F 30.19 in Calm     92% 0.00 in 0 W/m2
04:40 44.2 °F 42.0 °F 30.19 in Calm     92% 0.00 in 0 W/m2
04:46 43.9 °F 41.7 °F 30.19 in Calm     92% 0.00 in 0 W/m2
04:52 43.7 °F 41.5 °F 30.19 in Calm     92% 0.00 in 0 W/m2
04:58 43.5 °F 41.3 °F 30.19 in Calm     92% 0.00 in 0 W/m2
05:06 43.2 °F 41.0 °F 30.19 in Calm     92% 0.00 in 0 W/m2
05:12 43.0 °F 40.8 °F 30.19 in Calm     92% 0.00 in 0 W/m2
05:18 42.8 °F 40.6 °F 30.19 in Calm     92% 0.00 in 0 W/m2
05:24 42.8 °F 40.6 °F 30.19 in Calm     92% 0.00 in 0 W/m2
05:30 42.7 °F 40.5 °F 30.19 in Calm     92% 0.00 in 0 W/m2
05:36 42.5 °F 40.3 °F 30.19 in Calm     92% 0.00 in 0 W/m2
05:42 42.3 °F 40.1 °F 30.19 in Calm     92% 0.00 in 0 W/m2
05:48 42.3 °F 40.4 °F 30.19 in Calm     93% 0.00 in 0 W/m2
05:54 42.4 °F 40.2 °F 30.20 in Calm     92% 0.00 in 0 W/m2
06:00 42.2 °F 40.3 °F 30.20 in Calm     93% 0.00 in 0 W/m2
06:06 42.1 °F 40.2 °F 30.20 in Calm     93% 0.00 in 0 W/m2
06:12 42.0 °F 40.1 °F 30.19 in Calm     93% 0.00 in 0 W/m2
06:18 41.9 °F 40.0 °F 30.19 in Calm     93% 0.00 in 0 W/m2
06:26 41.8 °F 39.9 °F 30.20 in Calm     93% 0.00 in 0 W/m2
06:32 41.9 °F 40.0 °F 30.20 in Calm     93% 0.00 in 0 W/m2
06:38 41.8 °F 39.9 °F 30.20 in Calm     93% 0.00 in 7 W/m2
06:44 41.7 °F 39.8 °F 30.20 in Calm     93% 0.00 in 11 W/m2
06:50 41.7 °F 39.8 °F 30.19 in Calm     93% 0.00 in 14 W/m2
06:56 41.7 °F 39.8 °F 30.20 in Calm   1.0 mph 93% 0.00 in 18 W/m2
07:02 41.7 °F 39.8 °F 30.20 in Calm     93% 0.00 in 23 W/m2
07:08 41.8 °F 39.9 °F 30.20 in Calm     93% 0.00 in 28 W/m2
07:14 41.9 °F 40.0 °F 30.20 in Calm     93% 0.00 in 30 W/m2
07:20 42.0 °F 40.1 °F 30.20 in Calm     93% 0.00 in 33 W/m2
07:26 42.2 °F 40.3 °F 30.20 in Calm   1.0 mph 93% 0.00 in 47 W/m2
07:32 42.8 °F 40.9 °F 30.19 in Calm   2.0 mph 93% 0.00 in 104 W/m2
07:38 43.5 °F 41.6 °F 30.19 in NNW 1.0 mph 2.0 mph 93% 0.00 in 141 W/m2
07:44 44.0 °F 42.1 °F 30.20 in Calm   1.0 mph 93% 0.00 in 130 W/m2
07:50 44.1 °F 42.2 °F 30.20 in Calm     93% 0.00 in 86 W/m2
07:56 44.4 °F 42.5 °F 30.20 in Calm     93% 0.00 in 79 W/m2
08:02 44.9 °F 43.0 °F 30.20 in NNE 1.0 mph 1.0 mph 93% 0.00 in 65 W/m2
08:08 45.4 °F 43.2 °F 30.20 in NNE 1.0 mph 3.0 mph 92% 0.00 in 153 W/m2
08:14 45.7 °F 43.5 °F 30.20 in Calm   1.0 mph 92% 0.00 in 76 W/m2
08:20 46.2 °F 43.7 °F 30.20 in Calm     91% 0.00 in 60 W/m2
08:26 46.9 °F 44.4 °F 30.20 in SSE 1.0 mph 2.0 mph 91% 0.00 in 93 W/m2
08:32 47.6 °F 44.5 °F 30.20 in ESE 1.0 mph 2.0 mph 89% 0.00 in 63 W/m2
08:38 48.3 °F 44.6 °F 30.20 in SSE 1.0 mph 2.0 mph 87% 0.00 in 97 W/m2
08:44 48.9 °F 44.9 °F 30.20 in NE 1.0 mph 1.0 mph 86% 0.00 in 120 W/m2
08:50 49.8 °F 45.5 °F 30.20 in NE 1.0 mph 1.0 mph 85% 0.00 in 135 W/m2
08:56 50.5 °F 45.5 °F 30.20 in Calm   1.0 mph 83% 0.00 in 84 W/m2
09:02 51.2 °F 45.6 °F 30.20 in ENE 1.0 mph 2.0 mph 81% 0.00 in 186 W/m2
09:08 51.7 °F 46.1 °F 30.20 in SSE 1.0 mph 2.0 mph 81% 0.00 in 84 W/m2
09:14 52.2 °F 45.9 °F 30.21 in SSE 2.0 mph 3.0 mph 79% 0.00 in 69 W/m2
09:20 52.5 °F 46.2 °F 30.20 in SSE 2.0 mph 2.0 mph 79% 0.00 in 70 W/m2
09:26 52.8 °F 45.8 °F 30.20 in ENE 2.0 mph 2.0 mph 77% 0.00 in 141 W/m2
09:32 53.7 °F 47.0 °F 30.20 in SSE 2.0 mph 4.0 mph 78% 0.00 in 134 W/m2
09:38 54.1 °F 47.4 °F 30.19 in ENE 3.0 mph 5.0 mph 78% 0.00 in 211 W/m2
09:44 54.5 °F 47.4 °F 30.19 in SE 3.0 mph 7.0 mph 77% 0.00 in 547 W/m2
09:50 55.6 °F 47.8 °F 30.19 in SSE 3.0 mph 3.0 mph 75% 0.00 in 580 W/m2
09:56 56.5 °F 46.8 °F 30.19 in East 2.0 mph 4.0 mph 70% 0.00 in 598 W/m2
10:02 57.0 °F 47.3 °F 30.19 in ENE 2.0 mph 7.0 mph 70% 0.00 in 615 W/m2
10:08 57.6 °F 45.5 °F 30.19 in SSE 2.0 mph 7.0 mph 64% 0.00 in 635 W/m2
10:14 57.8 °F 46.1 °F 30.19 in ENE 2.0 mph 3.0 mph 65% 0.00 in 647 W/m2
10:20 58.7 °F 45.7 °F 30.19 in SSE 1.0 mph 3.0 mph 62% 0.00 in 666 W/m2
10:26 58.9 °F 45.0 °F 30.19 in ESE 2.0 mph 3.0 mph 60% 0.00 in 686 W/m2
10:32 59.1 °F 43.9 °F 30.18 in ENE 4.0 mph 5.0 mph 57% 0.00 in 698 W/m2
10:38 59.2 °F 44.0 °F 30.18 in NE 4.0 mph 5.0 mph 57% 0.00 in 714 W/m2
10:44 60.0 °F 44.7 °F 30.18 in SSE 3.0 mph 4.0 mph 57% 0.00 in 735 W/m2
10:50 60.5 °F 43.8 °F 30.18 in SSE 3.0 mph 3.0 mph 54% 0.00 in 758 W/m2
10:56 60.7 °F 43.9 °F 30.17 in SSE 3.0 mph 4.0 mph 54% 0.00 in 770 W/m2
11:02 60.9 °F 46.0 °F 30.17 in ENE 4.0 mph 4.0 mph 58% 0.00 in 782 W/m2
11:08 60.8 °F 43.6 °F 30.16 in ENE 4.0 mph 11.0 mph 53% 0.00 in 798 W/m2
11:14 61.5 °F 44.2 °F 30.16 in ENE 4.0 mph 4.0 mph 53% 0.00 in 807 W/m2
11:20 61.9 °F 46.0 °F 30.17 in ENE 3.0 mph 3.0 mph 56% 0.00 in 819 W/m2
11:26 61.3 °F 48.2 °F 30.17 in NE 3.0 mph 3.0 mph 62% 0.00 in 823 W/m2
11:32 61.3 °F 47.3 °F 30.17 in NNE 3.0 mph 3.0 mph 60% 0.00 in 835 W/m2
11:38 61.9 °F 47.9 °F 30.17 in SSE 3.0 mph 5.0 mph 60% 0.00 in 835 W/m2
11:44 62.0 °F 49.3 °F 30.17 in SSE 3.0 mph 4.0 mph 63% 0.00 in 835 W/m2
11:50 62.2 °F 48.1 °F 30.17 in SE 2.0 mph 2.0 mph 60% 0.00 in 838 W/m2
11:56 62.4 °F 47.9 °F 30.17 in ENE 2.0 mph 2.0 mph 59% 0.00 in 853 W/m2
12:02 63.4 °F 48.4 °F 30.16 in SSE 2.0 mph 8.0 mph 58% 0.00 in 853 W/m2
12:08 64.0 °F 47.5 °F 30.16 in SSE 3.0 mph 8.0 mph 55% 0.00 in 867 W/m2
12:14 64.3 °F 44.7 °F 30.16 in SSE 2.0 mph 8.0 mph 49% 0.00 in 868 W/m2
12:20 64.4 °F 49.3 °F 30.16 in East 3.0 mph 3.0 mph 58% 0.00 in 856 W/m2
12:26 64.8 °F 46.2 °F 30.15 in SSW 2.0 mph 4.0 mph 51% 0.00 in 875 W/m2
12:32 64.3 °F 48.7 °F 30.15 in NE 2.0 mph 4.0 mph 57% 0.00 in 856 W/m2
12:38 64.1 °F 47.6 °F 30.15 in NE 3.0 mph 4.0 mph 55% 0.00 in 847 W/m2
12:44 64.6 °F 48.1 °F 30.14 in ENE 3.0 mph 3.0 mph 55% 0.00 in 874 W/m2
12:50 64.6 °F 48.5 °F 30.14 in NE 2.0 mph 3.0 mph 56% 0.00 in 879 W/m2
12:56 65.1 °F 48.5 °F 30.14 in South 3.0 mph 4.0 mph 55% 0.00 in 879 W/m2
13:02 65.0 °F 47.4 °F 30.13 in East 3.0 mph 5.0 mph 53% 0.00 in 865 W/m2
13:08 65.8 °F 49.2 °F 30.13 in NNE 3.0 mph 5.0 mph 55% 0.00 in 877 W/m2
13:14 65.1 °F 48.5 °F 30.13 in NNE 3.0 mph 7.0 mph 55% 0.00 in 867 W/m2
13:20 65.5 °F 47.9 °F 30.13 in NNE 3.0 mph 3.0 mph 53% 0.00 in 875 W/m2
13:26 66.0 °F 51.7 °F 30.12 in ENE 4.0 mph 7.0 mph 60% 0.00 in 868 W/m2
13:32 66.2 °F 50.0 °F 30.12 in NNE 4.0 mph 5.0 mph 56% 0.00 in 867 W/m2
13:38 65.7 °F 48.6 °F 30.11 in NNW 5.0 mph 5.0 mph 54% 0.00 in 828 W/m2
13:44 66.1 °F 49.0 °F 30.11 in NE 5.0 mph 5.0 mph 54% 0.00 in 854 W/m2
13:50 66.8 °F 49.1 °F 30.11 in NE 3.0 mph 4.0 mph 53% 0.00 in 754 W/m2
13:56 66.6 °F 48.4 °F 30.11 in NNW 3.0 mph 4.0 mph 52% 0.00 in 851 W/m2
14:02 66.8 °F 48.1 °F 30.10 in NNE 4.0 mph 4.0 mph 51% 0.00 in 895 W/m2
14:08 66.5 °F 49.3 °F 30.10 in ENE 4.0 mph 7.0 mph 54% 0.00 in 830 W/m2
14:14 66.7 °F 47.5 °F 30.10 in NW 4.0 mph 5.0 mph 50% 0.00 in 643 W/m2
14:20 67.2 °F 48.5 °F 30.10 in North 4.0 mph 4.0 mph 51% 0.00 in 765 W/m2
14:26 67.2 °F 47.4 °F 30.09 in NNE 4.0 mph 4.0 mph 49% 0.00 in 742 W/m2
14:32 67.0 °F 47.2 °F 30.09 in NE 4.0 mph 5.0 mph 49% 0.00 in 471 W/m2
14:38 67.4 °F 50.2 °F 30.09 in ENE 2.0 mph 5.0 mph 54% 0.00 in 877 W/m2
14:44 67.8 °F 47.9 °F 30.09 in NNW 2.0 mph 7.0 mph 49% 0.00 in 796 W/m2
14:50 67.6 °F 47.8 °F 30.08 in East 4.0 mph 4.0 mph 49% 0.00 in 874 W/m2
14:56 67.9 °F 47.5 °F 30.08 in SE 3.0 mph 4.0 mph 48% 0.00 in 844 W/m2
15:02 68.1 °F 48.8 °F 30.08 in NE 3.0 mph 3.0 mph 50% 0.00 in 552 W/m2
15:08 68.5 °F 49.1 °F 30.08 in NNE 3.0 mph 3.0 mph 50% 0.00 in 821 W/m2
15:14 68.8 °F 49.9 °F 30.08 in ENE 4.0 mph 5.0 mph 51% 0.00 in 791 W/m2
15:20 69.6 °F 49.6 °F 30.08 in ENE 3.0 mph 3.0 mph 49% 0.00 in 780 W/m2
15:26 69.5 °F 49.5 °F 30.08 in NE 3.0 mph 5.0 mph 49% 0.00 in 751 W/m2
15:32 69.4 °F 48.9 °F 30.07 in NE 3.0 mph 4.0 mph 48% 0.00 in 733 W/m2
15:38 69.6 °F 50.7 °F 30.07 in ENE 3.0 mph 4.0 mph 51% 0.00 in 712 W/m2
15:44 70.6 °F 50.5 °F 30.07 in East 2.0 mph 2.0 mph 49% 0.00 in 701 W/m2
15:50 69.9 °F 48.2 °F 30.07 in NNE 3.0 mph 6.0 mph 46% 0.00 in 642 W/m2
15:56 70.2 °F 50.7 °F 30.07 in ENE 3.0 mph 7.0 mph 50% 0.00 in 687 W/m2
16:02 70.5 °F 49.3 °F 30.06 in NE 3.0 mph 5.0 mph 47% 0.00 in 677 W/m2
16:08 69.7 °F 48.0 °F 30.06 in ENE 3.0 mph 5.0 mph 46% 0.00 in 160 W/m2
16:14 68.9 °F 48.4 °F 30.05 in NE 2.0 mph 2.0 mph 48% 0.00 in 185 W/m2
16:20 68.2 °F 47.2 °F 30.05 in ENE 2.0 mph 2.0 mph 47% 0.00 in 237 W/m2
16:26 68.3 °F 50.0 °F 30.05 in NNE 1.0 mph 5.0 mph 52% 0.00 in 336 W/m2
16:32 69.6 °F 49.6 °F 30.05 in NE 2.0 mph 5.0 mph 49% 0.00 in 468 W/m2
16:38 70.0 °F 49.4 °F 30.05 in ENE 3.0 mph 5.0 mph 48% 0.00 in 626 W/m2
16:44 69.8 °F 49.2 °F 30.05 in NE 3.0 mph 5.0 mph 48% 0.00 in 288 W/m2
16:50 69.1 °F 50.2 °F 30.05 in North 3.0 mph 3.0 mph 51% 0.00 in 211 W/m2
16:56 69.1 °F 50.7 °F 30.05 in ENE 2.0 mph 3.0 mph 52% 0.00 in 195 W/m2
17:04 68.7 °F 48.8 °F 30.05 in NE 1.0 mph 2.0 mph 49% 0.00 in 232 W/m2
17:10 68.9 °F 49.5 °F 30.05 in NNE 1.0 mph 1.0 mph 50% 0.00 in 279 W/m2
17:16 69.4 °F 49.9 °F 30.05 in East 1.0 mph 1.0 mph 50% 0.00 in 246 W/m2
17:22 69.7 °F 50.2 °F 30.05 in East 1.0 mph 2.0 mph 50% 0.00 in 397 W/m2
17:28 70.5 °F 47.5 °F 30.05 in SSW 3.0 mph 6.0 mph 44% 0.00 in 450 W/m2
17:40 70.3 °F 46.1 °F 30.04 in South 5.0 mph 5.0 mph 42% 0.00 in 309 W/m2
17:46 70.2 °F 46.6 °F 30.04 in SSW 3.0 mph 5.0 mph 43% 0.00 in 97 W/m2
17:52 70.1 °F 45.9 °F 30.04 in South 3.0 mph 3.0 mph 42% 0.00 in 84 W/m2
17:58 69.5 °F 47.2 °F 30.04 in SE 3.0 mph 4.0 mph 45% 0.00 in 65 W/m2
18:04 68.8 °F 46.6 °F 30.04 in South 2.0 mph 4.0 mph 45% 0.00 in 60 W/m2
18:10 68.4 °F 42.5 °F 30.04 in South 2.0 mph 2.0 mph 39% 0.00 in 60 W/m2
18:16 68.5 °F 42.6 °F 30.04 in SSE 3.0 mph 4.0 mph 39% 0.00 in 62 W/m2
18:22 68.4 °F 41.1 °F 30.04 in SE 2.0 mph 6.0 mph 37% 0.00 in 67 W/m2
18:28 68.4 °F 39.7 °F 30.04 in SE 4.0 mph 6.0 mph 35% 0.00 in 76 W/m2
18:34 68.2 °F 40.9 °F 30.03 in SSE 4.0 mph 4.0 mph 37% 0.00 in 72 W/m2
18:40 68.0 °F 41.4 °F 30.03 in SSE 3.0 mph 3.0 mph 38% 0.00 in 65 W/m2
18:46 67.9 °F 41.3 °F 30.04 in South 3.0 mph 5.0 mph 38% 0.00 in 58 W/m2
18:52 67.5 °F 43.6 °F 30.04 in SSE 2.0 mph 2.0 mph 42% 0.00 in 51 W/m2
18:58 67.2 °F 43.3 °F 30.03 in South 2.0 mph 2.0 mph 42% 0.00 in 37 W/m2
19:04 66.7 °F 44.1 °F 30.03 in SSE 2.0 mph 4.0 mph 44% 0.00 in 30 W/m2
19:10 66.3 °F 43.7 °F 30.03 in SSE 2.0 mph 5.0 mph 44% 0.00 in 26 W/m2
19:16 66.0 °F 43.5 °F 30.03 in SSE 3.0 mph 5.0 mph 44% 0.00 in 18 W/m2
19:22 65.6 °F 43.7 °F 30.04 in South 2.0 mph 3.0 mph 45% 0.00 in 11 W/m2
19:28 65.2 °F 44.5 °F 30.03 in South 2.0 mph 3.0 mph 47% 0.00 in 5 W/m2
19:34 64.9 °F 44.2 °F 30.03 in SSE 2.0 mph 3.0 mph 47% 0.00 in 0 W/m2
19:40 64.6 °F 44.5 °F 30.03 in South 2.0 mph 3.0 mph 48% 0.00 in 0 W/m2
19:46 64.2 °F 44.6 °F 30.03 in South 1.0 mph 3.0 mph 49% 0.00 in 0 W/m2
19:52 64.1 °F 44.5 °F 30.03 in South 1.0 mph 1.0 mph 49% 0.00 in 0 W/m2
19:58 64.0 °F 45.5 °F 30.04 in SSE 2.0 mph 5.0 mph 51% 0.00 in 0 W/m2
20:04 64.0 °F 46.0 °F 30.03 in SSW 2.0 mph 3.0 mph 52% 0.00 in 0 W/m2
20:10 63.9 °F 45.9 °F 30.03 in SSE 2.0 mph 2.0 mph 52% 0.00 in 0 W/m2
20:16 63.8 °F 45.8 °F 30.03 in SSE 2.0 mph 3.0 mph 52% 0.00 in 0 W/m2
20:22 63.8 °F 46.3 °F 30.03 in SSE 2.0 mph 2.0 mph 53% 0.00 in 0 W/m2
20:28 63.6 °F 47.1 °F 30.03 in SE 2.0 mph 4.0 mph 55% 0.00 in 0 W/m2
20:34 63.4 °F 46.5 °F 30.03 in SSE 2.0 mph 3.0 mph 54% 0.00 in 0 W/m2
20:40 63.4 °F 46.9 °F 30.03 in South 1.0 mph 1.0 mph 55% 0.00 in 0 W/m2
20:46 63.0 °F 48.4 °F 30.03 in Calm   3.0 mph 59% 0.00 in 0 W/m2
20:52 62.7 °F 47.7 °F 30.03 in Calm   2.0 mph 58% 0.00 in 0 W/m2
20:58 62.6 °F 47.6 °F 30.03 in South 1.0 mph 3.0 mph 58% 0.00 in 0 W/m2
21:04 62.8 °F 46.9 °F 30.03 in SE 2.0 mph 4.0 mph 56% 0.00 in 0 W/m2
21:10 62.9 °F 47.4 °F 30.03 in SSE 2.0 mph 3.0 mph 57% 0.00 in 0 W/m2
21:16 62.9 °F 46.0 °F 30.04 in South 2.0 mph 3.0 mph 54% 0.00 in 0 W/m2
21:22 63.1 °F 45.2 °F 30.03 in South 2.0 mph 3.0 mph 52% 0.00 in 0 W/m2
21:28 63.2 °F 44.2 °F 30.04 in SSE 3.0 mph 4.0 mph 50% 0.00 in 0 W/m2
21:34 63.1 °F 44.7 °F 30.03 in SSE 4.0 mph 4.0 mph 51% 0.00 in 0 W/m2
21:40 62.8 °F 44.4 °F 30.04 in South 3.0 mph 5.0 mph 51% 0.00 in 0 W/m2
21:46 62.5 °F 44.6 °F 30.03 in South 4.0 mph 5.0 mph 52% 0.00 in 0 W/m2
21:52 62.3 °F 44.9 °F 30.03 in South 3.0 mph 3.0 mph 53% 0.00 in 0 W/m2
21:58 62.0 °F 45.6 °F 30.03 in SE 3.0 mph 7.0 mph 55% 0.00 in 0 W/m2
22:04 61.3 °F 45.5 °F 30.03 in SSE 3.0 mph 5.0 mph 56% 0.00 in 0 W/m2
22:10 60.9 °F 45.6 °F 30.02 in SE 2.0 mph 2.0 mph 57% 0.00 in 0 W/m2
22:16 60.8 °F 45.0 °F 30.02 in SSE 2.0 mph 4.0 mph 56% 0.00 in 0 W/m2
22:22 60.8 °F 45.9 °F 30.02 in SSE 2.0 mph 3.0 mph 58% 0.00 in 0 W/m2
22:28 60.7 °F 45.4 °F 30.02 in SSE 3.0 mph 6.0 mph 57% 0.00 in 0 W/m2
22:34 60.5 °F 46.1 °F 30.02 in SSE 2.0 mph 3.0 mph 59% 0.00 in 0 W/m2
22:40 60.2 °F 45.8 °F 30.02 in SW 3.0 mph 3.0 mph 59% 0.00 in 0 W/m2
22:46 60.2 °F 45.8 °F 30.02 in South 3.0 mph 4.0 mph 59% 0.00 in 0 W/m2
22:52 60.4 °F 46.0 °F 30.02 in South 4.0 mph 6.0 mph 59% 0.00 in 0 W/m2
22:58 60.0 °F 46.9 °F 30.02 in SSE 3.0 mph 6.0 mph 62% 0.00 in 0 W/m2
23:04 59.5 °F 46.9 °F 30.01 in SSE 2.0 mph 4.0 mph 63% 0.00 in 0 W/m2
23:10 59.1 °F 46.9 °F 30.02 in South 2.0 mph 2.0 mph 64% 0.00 in 0 W/m2
23:18 59.0 °F 47.2 °F 30.01 in SSE 1.0 mph 2.0 mph 65% 0.00 in 0 W/m2
23:22 58.5 °F 46.4 °F 30.01 in SSE 1.0 mph 1.0 mph 64% 0.00 in 0 W/m2
23:28 58.0 °F 47.9 °F 30.00 in Calm   1.0 mph 69% 0.00 in 0 W/m2
23:34 57.5 °F 48.5 °F 30.00 in Calm     72% 0.00 in 0 W/m2
23:40 56.8 °F 49.7 °F 30.01 in Calm     77% 0.00 in 0 W/m2
23:46 56.2 °F 49.4 °F 30.01 in Calm     78% 0.00 in 0 W/m2
23:52 56.0 °F 49.9 °F 30.01 in Calm     80% 0.00 in 0 W/m2
23:58 55.6 °F 50.5 °F 30.00 in SSE 1.0 mph 2.0 mph 83% 0.00 in 0 W/m2
Country Meadow, Clay, NY, USA
Compliments of Weather Underground - 2 mb